Time;durP1;ratioP1;P1;durP2;ratioP2;P2;SDS_P1;SDS_P2;PMS_P1;PMS_P2;Temp;Humidity;BMP_temperature;BMP_pressure;BME280_temperature;BME280_humidity;BME280_pressure;Samples;Min_cycle;Max_cycle;Signal;HPM_P1;HPM_P2
2023/12/01 00:00:13;;;;;;;40.55;20.33;;;;;;;;;;5020809;28;93812;-62
2023/12/01 00:02:39;;;;;;;39.13;19.00;;;;;;;;;;5018114;27;92571;-62
2023/12/01 00:05:06;;;;;;;37.13;18.70;;;;;;;;;;5018437;28;94443;-62
2023/12/01 00:07:32;;;;;;;39.50;19.58;;;;;;;;;;5015698;28;95892;-62
2023/12/01 00:09:58;;;;;;;40.13;18.17;;;;;;;;;;5021960;28;92561;-62
2023/12/01 00:12:25;;;;;;;32.90;17.75;;;;;;;;;;5020241;28;93717;-62
2023/12/01 00:14:51;;;;;;;36.35;18.60;;;;;;;;;;5018624;28;93399;-62
2023/12/01 00:17:18;;;;;;;37.85;19.35;;;;;;;;;;5026131;28;92461;-62
2023/12/01 00:19:44;;;;;;;40.63;19.63;;;;;;;;;;5016350;28;93433;-62
2023/12/01 00:22:10;;;;;;;37.80;17.77;;;;;;;;;;5022302;28;92565;-62
2023/12/01 00:24:37;;;;;;;38.00;18.92;;;;;;;;;;5012911;27;94279;-62
2023/12/01 00:27:04;;;;;;;38.80;20.88;;;;;;;;;;5020222;28;93063;-62
2023/12/01 00:29:30;;;;;;;37.08;19.88;;;;;;;;;;5019057;27;92434;-62
2023/12/01 00:31:57;;;;;;;43.22;20.02;;;;;;;;;;5018481;28;95332;-62
2023/12/01 00:34:23;;;;;;;41.53;21.30;;;;;;;;;;5020033;27;94456;-62
2023/12/01 00:36:50;;;;;;;40.63;20.05;;;;;;;;;;5022985;28;92349;-62
2023/12/01 00:39:16;;;;;;;39.63;19.95;;;;;;;;;;5027963;27;94283;-62
2023/12/01 00:41:43;;;;;;;42.53;20.88;;;;;;;;;;5021892;27;92837;-62
2023/12/01 00:44:09;;;;;;;40.20;20.27;;;;;;;;;;5020627;28;93195;-62
2023/12/01 00:46:35;;;;;;;44.33;19.63;;;;;;;;;;5019405;27;94163;-62
2023/12/01 00:49:02;;;;;;;43.22;20.50;;;;;;;;;;5023093;28;91622;-62
2023/12/01 00:51:29;;;;;;;38.25;18.55;;;;;;;;;;5017318;28;93770;-61
2023/12/01 00:53:55;;;;;;;37.55;18.98;;;;;;;;;;5019645;27;93411;-62
2023/12/01 00:56:22;;;;;;;37.28;19.85;;;;;;;;;;5019570;27;95324;-62
2023/12/01 00:58:48;;;;;;;36.95;18.80;;;;;;;;;;5023180;27;96535;-62
2023/12/01 01:01:14;;;;;;;38.20;18.92;;;;;;;;;;5018277;28;94503;-62
2023/12/01 01:03:41;;;;;;;39.80;19.23;;;;;;;;;;5022306;28;93180;-62
2023/12/01 01:06:07;;;;;;;32.72;16.13;;;;;;;;;;5024854;28;94074;-61
2023/12/01 01:08:34;;;;;;;36.38;16.20;;;;;;;;;;5017291;28;92591;-59
2023/12/01 01:11:00;;;;;;;32.15;16.38;;;;;;;;;;5016068;28;93121;-60
2023/12/01 01:13:28;;;;;;;30.75;15.15;;;;;;;;;;5019557;28;92567;-60
2023/12/01 01:15:54;;;;;;;37.22;16.35;;;;;;;;;;5020741;27;92529;-60
2023/12/01 01:18:21;;;;;;;35.15;16.40;;;;;;;;;;5017565;28;94592;-61
2023/12/01 01:20:48;;;;;;;29.58;14.65;;;;;;;;;;5021698;27;95145;-60
2023/12/01 01:23:14;;;;;;;25.05;13.70;;;;;;;;;;5025424;28;92476;-59
2023/12/01 01:25:40;;;;;;;33.15;14.38;;;;;;;;;;5021587;28;94346;-60
2023/12/01 01:28:07;;;;;;;29.73;13.45;;;;;;;;;;5026399;28;92440;-60
2023/12/01 01:30:34;;;;;;;31.17;15.32;;;;;;;;;;5020247;27;93393;-60
2023/12/01 01:33:00;;;;;;;26.83;14.02;;;;;;;;;;5018738;27;93454;-60
2023/12/01 01:35:29;;;;;;;32.40;13.73;;;;;;;;;;5022746;28;92541;-60
2023/12/01 01:37:55;;;;;;;30.92;13.93;;;;;;;;;;5019184;28;93086;-60
2023/12/01 01:40:21;;;;;;;28.42;13.63;;;;;;;;;;5017575;27;93407;-60
2023/12/01 01:42:48;;;;;;;29.60;13.95;;;;;;;;;;5021400;27;92364;-60
2023/12/01 01:45:14;;;;;;;37.45;14.88;;;;;;;;;;5023832;28;94911;-59
2023/12/01 01:47:41;;;;;;;32.17;14.32;;;;;;;;;;5021759;27;92451;-61
2023/12/01 01:50:07;;;;;;;35.33;14.98;;;;;;;;;;5017439;28;93396;-60
2023/12/01 01:52:35;;;;;;;32.22;14.43;;;;;;;;;;5021768;28;94417;-60
2023/12/01 01:55:02;;;;;;;32.60;14.55;;;;;;;;;;5016932;28;92490;-60
2023/12/01 01:57:33;;;;;;;32.55;14.77;;;;;;;;;;5020081;27;94156;-60
2023/12/01 01:59:59;;;;;;;27.52;13.18;;;;;;;;;;5020289;27;93800;-61
2023/12/01 02:02:25;;;;;;;32.47;14.77;;;;;;;;;;5024347;27;93301;-60
2023/12/01 02:04:53;;;;;;;34.15;14.93;;;;;;;;;;5023658;27;92541;-60
2023/12/01 02:07:26;;;;;;;36.90;16.08;;;;;;;;;;5025411;27;92411;-60
2023/12/01 02:09:54;;;;;;;35.60;16.33;;;;;;;;;;5017506;28;94904;-60
2023/12/01 02:12:20;;;;;;;38.42;15.32;;;;;;;;;;5018473;28;94578;-60
2023/12/01 02:14:47;;;;;;;36.58;15.85;;;;;;;;;;5017181;28;92992;-60
2023/12/01 02:17:13;;;;;;;42.55;16.50;;;;;;;;;;5016816;27;93449;-60
2023/12/01 02:19:39;;;;;;;37.50;16.50;;;;;;;;;;5026718;28;93486;-60
2023/12/01 02:22:06;;;;;;;40.15;16.88;;;;;;;;;;5022393;27;92617;-59
2023/12/01 02:24:32;;;;;;;40.47;18.00;;;;;;;;;;5013122;28;95058;-60
2023/12/01 02:26:59;;;;;;;46.80;18.60;;;;;;;;;;5023080;28;92914;-60
2023/12/01 02:29:25;;;;;;;36.80;16.38;;;;;;;;;;5020148;27;92579;-60
2023/12/01 02:31:51;;;;;;;38.50;18.00;;;;;;;;;;5014407;27;93407;-61
2023/12/01 02:34:21;;;;;;;40.40;18.08;;;;;;;;;;5014250;28;94925;-60
2023/12/01 02:36:47;;;;;;;39.63;17.60;;;;;;;;;;5022491;27;95603;-60
2023/12/01 02:39:13;;;;;;;42.40;18.42;;;;;;;;;;5020070;27;93560;-60
2023/12/01 02:41:40;;;;;;;40.75;17.58;;;;;;;;;;5020938;28;94047;-60
2023/12/01 02:44:06;;;;;;;42.70;18.77;;;;;;;;;;5024829;27;94280;-60
2023/12/01 02:46:32;;;;;;;40.70;19.30;;;;;;;;;;5020158;27;93575;-60
2023/12/01 02:48:59;;;;;;;50.90;20.90;;;;;;;;;;5022322;27;92545;-60
2023/12/01 02:51:25;;;;;;;39.60;18.98;;;;;;;;;;5018606;28;93740;-60
2023/12/01 02:53:52;;;;;;;52.85;22.27;;;;;;;;;;5020035;28;92649;-60
2023/12/01 02:56:18;;;;;;;59.20;24.70;;;;;;;;;;5017254;28;92439;-59
2023/12/01 02:58:44;;;;;;;53.85;24.40;;;;;;;;;;5019940;28;95730;-60
2023/12/01 03:01:11;;;;;;;59.90;26.42;;;;;;;;;;5012243;27;92738;-60
2023/12/01 03:03:37;;;;;;;64.03;25.95;;;;;;;;;;5019188;28;94334;-60
2023/12/01 03:06:04;;;;;;;56.25;25.52;;;;;;;;;;5019465;28;93580;-60
2023/12/01 03:08:30;;;;;;;57.63;24.42;;;;;;;;;;5021521;28;92894;-60
2023/12/01 03:10:56;;;;;;;57.05;24.60;;;;;;;;;;5023480;28;94699;-60
2023/12/01 03:13:23;;;;;;;58.25;25.85;;;;;;;;;;5016567;27;92536;-60
2023/12/01 03:15:50;;;;;;;61.15;25.67;;;;;;;;;;5017722;27;93149;-60
2023/12/01 03:18:17;;;;;;;63.72;27.05;;;;;;;;;;5021052;28;93599;-60
2023/12/01 03:20:46;;;;;;;69.07;26.25;;;;;;;;;;5021625;28;92535;-61
2023/12/01 03:23:12;;;;;;;61.83;25.60;;;;;;;;;;5021473;28;94957;-60
2023/12/01 03:25:39;;;;;;;69.63;27.65;;;;;;;;;;5017628;27;93796;-60
2023/12/01 03:28:05;;;;;;;67.07;27.15;;;;;;;;;;5013913;27;92535;-61
2023/12/01 03:30:31;;;;;;;64.93;26.95;;;;;;;;;;5019479;28;93198;-62
2023/12/01 03:32:58;;;;;;;70.55;26.63;;;;;;;;;;5020832;28;93291;-61
2023/12/01 03:35:24;;;;;;;66.35;27.13;;;;;;;;;;5012047;28;93177;-62
2023/12/01 03:37:55;;;;;;;66.32;27.15;;;;;;;;;;5020535;28;94488;-62
2023/12/01 03:40:22;;;;;;;60.53;26.48;;;;;;;;;;5014237;28;91605;-62
2023/12/01 03:42:49;;;;;;;59.97;26.05;;;;;;;;;;5019505;28;92901;-62
2023/12/01 03:45:16;;;;;;;65.80;26.98;;;;;;;;;;5017795;28;93465;-62
2023/12/01 03:47:43;;;;;;;66.25;29.42;;;;;;;;;;5017542;28;94890;-62
2023/12/01 03:50:13;;;;;;;68.85;29.02;;;;;;;;;;5019267;28;95709;-62
2023/12/01 03:52:46;;;;;;;69.35;28.52;;;;;;;;;;5019691;28;93625;-62
2023/12/01 03:55:12;;;;;;;67.38;28.45;;;;;;;;;;5019386;28;92513;-62
2023/12/01 03:57:39;;;;;;;74.25;30.00;;;;;;;;;;5017645;27;94564;-62
2023/12/01 04:00:16;;;;;;;66.20;28.52;;;;;;;;;;5019287;27;92598;-62
2023/12/01 04:02:44;;;;;;;63.83;27.33;;;;;;;;;;5020818;28;92947;-62
2023/12/01 04:05:18;;;;;;;78.15;29.05;;;;;;;;;;5022758;27;92961;-62
2023/12/01 04:07:51;;;;;;;72.88;29.17;;;;;;;;;;5019571;27;92550;-62
2023/12/01 04:10:22;;;;;;;73.35;27.58;;;;;;;;;;5022670;27;93185;-62
2023/12/01 04:12:48;;;;;;;64.88;27.23;;;;;;;;;;5011286;28;96942;-62
2023/12/01 04:15:15;;;;;;;77.85;28.67;;;;;;;;;;5024374;28;92752;-62
2023/12/01 04:17:42;;;;;;;78.13;29.45;;;;;;;;;;5022442;28;94434;-62
2023/12/01 04:20:20;;;;;;;77.68;27.80;;;;;;;;;;5019632;28;92486;-62
2023/12/01 04:22:48;;;;;;;72.72;28.33;;;;;;;;;;5022078;27;93666;-61
2023/12/01 04:25:14;;;;;;;72.00;28.50;;;;;;;;;;5023893;28;94486;-62
2023/12/01 04:27:40;;;;;;;76.22;28.90;;;;;;;;;;5023657;27;92672;-62
2023/12/01 04:30:13;;;;;;;73.90;28.13;;;;;;;;;;5024129;28;93335;-62
2023/12/01 04:32:41;;;;;;;77.53;29.90;;;;;;;;;;5020876;27;93431;-60
2023/12/01 04:35:07;;;;;;;75.68;29.92;;;;;;;;;;5017805;28;92599;-62
2023/12/01 04:37:34;;;;;;;78.32;30.20;;;;;;;;;;5021298;28;94900;-62
2023/12/01 04:40:00;;;;;;;71.32;29.10;;;;;;;;;;5022607;27;92562;-62
2023/12/01 04:42:26;;;;;;;70.40;29.00;;;;;;;;;;5024610;28;93244;-62
2023/12/01 04:44:53;;;;;;;73.35;29.17;;;;;;;;;;5020556;28;93403;-62
2023/12/01 04:47:21;;;;;;;74.53;29.88;;;;;;;;;;5022093;28;92726;-62
2023/12/01 04:49:47;;;;;;;73.28;29.05;;;;;;;;;;5023061;27;94240;-62
2023/12/01 04:52:13;;;;;;;73.55;29.35;;;;;;;;;;5020115;28;93424;-62
2023/12/01 04:54:40;;;;;;;74.53;29.40;;;;;;;;;;5021556;27;91822;-62
2023/12/01 04:57:06;;;;;;;69.20;28.55;;;;;;;;;;5023269;27;92524;-62
2023/12/01 04:59:32;;;;;;;76.28;29.55;;;;;;;;;;5023882;27;92444;-62
2023/12/01 05:01:59;;;;;;;69.93;28.35;;;;;;;;;;5019630;28;94771;-62
2023/12/01 05:04:25;;;;;;;73.68;28.05;;;;;;;;;;5019773;28;93422;-62
2023/12/01 05:06:52;;;;;;;76.25;29.52;;;;;;;;;;5021956;27;94018;-65
2023/12/01 05:09:21;;;;;;;73.15;27.77;;;;;;;;;;5018714;28;94444;-62
2023/12/01 05:11:47;;;;;;;72.10;28.70;;;;;;;;;;5019104;28;93416;-62
2023/12/01 05:14:16;;;;;;;70.03;28.42;;;;;;;;;;5019500;28;92494;-62
2023/12/01 05:16:42;;;;;;;66.10;27.08;;;;;;;;;;5019982;27;94276;-62
2023/12/01 05:19:10;;;;;;;67.78;27.70;;;;;;;;;;5025815;28;92660;-62
2023/12/01 05:21:37;;;;;;;67.75;26.00;;;;;;;;;;5020571;28;92489;-60
2023/12/01 05:24:03;;;;;;;73.55;27.63;;;;;;;;;;5022268;28;93426;-62
2023/12/01 05:26:30;;;;;;;66.15;26.15;;;;;;;;;;5023404;27;94867;-62
2023/12/01 05:28:56;;;;;;;68.28;26.35;;;;;;;;;;5014752;28;96689;-62
2023/12/01 05:31:23;;;;;;;62.65;26.23;;;;;;;;;;5017397;28;93416;-62
2023/12/01 05:33:49;;;;;;;67.55;26.23;;;;;;;;;;5015576;28;92763;-62
2023/12/01 05:36:27;;;;;;;57.78;24.73;;;;;;;;;;5014416;28;94159;-62
2023/12/01 05:38:53;;;;;;;59.63;25.95;;;;;;;;;;5018842;28;93511;-62
2023/12/01 05:41:21;;;;;;;60.47;25.63;;;;;;;;;;5018357;28;92587;-62
2023/12/01 05:43:47;;;;;;;61.83;25.48;;;;;;;;;;5019652;28;93227;-62
2023/12/01 05:46:13;;;;;;;66.45;25.90;;;;;;;;;;5022173;28;92538;-62
2023/12/01 05:48:41;;;;;;;64.68;26.33;;;;;;;;;;5020626;27;92915;-61
2023/12/01 05:51:07;;;;;;;61.33;26.13;;;;;;;;;;5020403;28;96781;-61
2023/12/01 05:53:34;;;;;;;66.32;25.73;;;;;;;;;;5018851;27;92367;-62
2023/12/01 05:56:00;;;;;;;64.70;24.73;;;;;;;;;;5019332;27;93402;-61
2023/12/01 05:58:27;;;;;;;55.45;24.13;;;;;;;;;;5014913;28;94409;-62
2023/12/01 06:00:53;;;;;;;54.72;22.92;;;;;;;;;;5018130;28;92519;-61
2023/12/01 06:03:20;;;;;;;52.83;21.50;;;;;;;;;;5022695;27;94335;-62
2023/12/01 06:05:46;;;;;;;58.08;22.25;;;;;;;;;;5020559;27;92455;-61
2023/12/01 06:08:12;;;;;;;51.83;22.05;;;;;;;;;;5022182;28;93297;-62
2023/12/01 06:10:39;;;;;;;51.35;21.98;;;;;;;;;;5023749;28;94421;-61
2023/12/01 06:13:05;;;;;;;49.50;21.50;;;;;;;;;;5020390;27;92503;-61
2023/12/01 06:15:32;;;;;;;50.85;21.00;;;;;;;;;;5014707;28;94853;-60
2023/12/01 06:17:59;;;;;;;49.00;22.00;;;;;;;;;;5015966;28;93410;-62
2023/12/01 06:20:26;;;;;;;44.17;20.70;;;;;;;;;;5021437;28;92507;-62
2023/12/01 06:22:56;;;;;;;49.60;20.85;;;;;;;;;;5018372;27;93947;-62
2023/12/01 06:25:29;;;;;;;49.45;21.17;;;;;;;;;;5020883;28;93401;-62
2023/12/01 06:27:57;;;;;;;46.45;20.27;;;;;;;;;;5023081;28;93209;-62
2023/12/01 06:30:24;;;;;;;44.30;20.58;;;;;;;;;;5019519;27;94969;-62
2023/12/01 06:32:51;;;;;;;45.60;21.50;;;;;;;;;;5017689;28;91685;-61
2023/12/01 06:35:19;;;;;;;48.88;21.17;;;;;;;;;;5020033;27;92850;-62
2023/12/01 06:37:46;;;;;;;43.55;20.38;;;;;;;;;;5020188;28;93296;-62
2023/12/01 06:40:16;;;;;;;43.15;19.98;;;;;;;;;;5016846;28;94816;-62
2023/12/01 06:42:48;;;;;;;46.38;20.65;;;;;;;;;;5022530;27;96831;-62
2023/12/01 06:45:16;;;;;;;44.22;20.45;;;;;;;;;;5020491;28;93749;-62
2023/12/01 06:47:45;;;;;;;45.45;19.60;;;;;;;;;;5025317;28;92518;-60
2023/12/01 06:50:16;;;;;;;50.13;21.73;;;;;;;;;;5019968;27;93354;-62
2023/12/01 06:52:43;;;;;;;42.83;19.35;;;;;;;;;;5017347;28;92542;-62
2023/12/01 06:55:09;;;;;;;46.03;20.02;;;;;;;;;;5017491;28;94254;-62
2023/12/01 06:57:38;;;;;;;44.08;19.30;;;;;;;;;;5017136;28;92750;-60
2023/12/01 07:00:09;;;;;;;45.55;19.23;;;;;;;;;;5024420;27;94605;-60
2023/12/01 07:02:37;;;;;;;50.65;18.45;;;;;;;;;;5021964;28;93165;-61
2023/12/01 07:05:05;;;;;;;52.28;20.63;;;;;;;;;;5014624;28;96787;-61
2023/12/01 07:07:32;;;;;;;42.53;17.67;;;;;;;;;;5017033;27;92405;-60
2023/12/01 07:09:59;;;;;;;49.50;17.52;;;;;;;;;;5020956;27;93509;-61
2023/12/01 07:12:25;;;;;;;39.17;17.25;;;;;;;;;;5019575;28;92534;-60
2023/12/01 07:14:52;;;;;;;39.40;17.30;;;;;;;;;;5019416;27;93206;-61
2023/12/01 07:17:18;;;;;;;42.53;16.85;;;;;;;;;;5018627;28;93413;-61
2023/12/01 07:19:45;;;;;;;39.25;16.02;;;;;;;;;;5021425;28;93112;-60
2023/12/01 07:22:11;;;;;;;40.20;17.55;;;;;;;;;;5020118;28;93205;-59
2023/12/01 07:24:38;;;;;;;36.60;16.42;;;;;;;;;;5020642;28;93144;-60
2023/12/01 07:27:04;;;;;;;36.17;16.48;;;;;;;;;;5020049;28;92436;-60
2023/12/01 07:29:31;;;;;;;40.67;16.65;;;;;;;;;;5019403;28;94914;-61
2023/12/01 07:31:59;;;;;;;43.30;16.45;;;;;;;;;;5023231;28;93656;-60
2023/12/01 07:34:26;;;;;;;40.78;17.40;;;;;;;;;;5020693;27;93509;-60
2023/12/01 07:36:52;;;;;;;36.70;16.65;;;;;;;;;;5016593;28;94488;-60
2023/12/01 07:39:22;;;;;;;38.78;17.80;;;;;;;;;;5019499;28;93694;-61
2023/12/01 07:41:49;;;;;;;37.85;16.10;;;;;;;;;;5017142;28;93240;-61
2023/12/01 07:44:17;;;;;;;37.45;17.15;;;;;;;;;;5014818;28;95662;-61
2023/12/01 07:46:44;;;;;;;37.80;16.10;;;;;;;;;;5021660;27;91795;-61
2023/12/01 07:49:11;;;;;;;37.33;15.93;;;;;;;;;;5019026;27;93454;-60
2023/12/01 07:51:38;;;;;;;35.88;15.38;;;;;;;;;;5018286;27;93871;-61
2023/12/01 07:54:05;;;;;;;39.40;15.15;;;;;;;;;;5021935;28;94828;-61
2023/12/01 07:56:32;;;;;;;34.88;14.27;;;;;;;;;;5015829;28;93421;-60
2023/12/01 07:58:58;;;;;;;31.15;14.07;;;;;;;;;;5018744;27;94195;-61
2023/12/01 08:01:24;;;;;;;35.47;14.98;;;;;;;;;;5021727;27;94294;-60
2023/12/01 08:03:51;;;;;;;31.00;14.90;;;;;;;;;;5021528;28;94538;-60
2023/12/01 08:06:18;;;;;;;36.70;14.50;;;;;;;;;;5022012;27;92311;-60
2023/12/01 08:08:44;;;;;;;31.45;14.30;;;;;;;;;;5021386;28;94275;-60
2023/12/01 08:11:11;;;;;;;32.25;14.45;;;;;;;;;;5012600;28;93798;-60
2023/12/01 08:13:37;;;;;;;34.28;14.80;;;;;;;;;;5015054;28;94776;-61
2023/12/01 08:16:04;;;;;;;29.95;13.07;;;;;;;;;;5016204;27;93242;-60
2023/12/01 08:18:31;;;;;;;32.05;13.90;;;;;;;;;;5014013;28;94921;-60
2023/12/01 08:20:58;;;;;;;35.35;14.77;;;;;;;;;;5016479;28;95529;-60
2023/12/01 08:23:24;;;;;;;31.90;13.60;;;;;;;;;;5021109;28;94431;-61
2023/12/01 08:25:51;;;;;;;31.75;13.57;;;;;;;;;;5020910;27;92487;-60
2023/12/01 08:28:18;;;;;;;35.55;14.00;;;;;;;;;;5018941;28;94933;-60
2023/12/01 08:30:44;;;;;;;26.52;12.55;;;;;;;;;;5017236;28;93479;-59
2023/12/01 08:33:15;;;;;;;31.08;13.07;;;;;;;;;;5016317;28;92649;-60
2023/12/01 08:35:41;;;;;;;30.58;13.13;;;;;;;;;;5017245;28;94206;-61
2023/12/01 08:38:10;;;;;;;31.85;13.35;;;;;;;;;;5022666;27;92496;-60
2023/12/01 08:40:37;;;;;;;29.20;12.43;;;;;;;;;;5012107;28;93396;-60
2023/12/01 08:43:09;;;;;;;28.63;13.10;;;;;;;;;;5015109;28;96825;-60
2023/12/01 08:45:35;;;;;;;36.58;14.48;;;;;;;;;;5019805;27;92425;-60
2023/12/01 08:48:02;;;;;;;27.30;12.23;;;;;;;;;;5020100;27;92381;-61
2023/12/01 08:50:29;;;;;;;31.50;13.20;;;;;;;;;;5021308;27;93671;-60
2023/12/01 08:52:55;;;;;;;29.42;13.32;;;;;;;;;;5023048;27;92822;-60
2023/12/01 08:55:21;;;;;;;31.00;12.32;;;;;;;;;;5024711;28;94179;-60
2023/12/01 08:57:48;;;;;;;31.77;12.27;;;;;;;;;;5024302;27;92568;-59
2023/12/01 09:00:20;;;;;;;30.13;12.15;;;;;;;;;;5025630;27;93757;-61
2023/12/01 09:02:48;;;;;;;29.48;12.43;;;;;;;;;;5022543;27;93518;-60
2023/12/01 09:05:14;;;;;;;24.63;10.95;;;;;;;;;;5023770;27;92558;-60
2023/12/01 09:07:41;;;;;;;27.85;12.18;;;;;;;;;;5024499;27;94935;-60
2023/12/01 09:10:07;;;;;;;23.45;11.45;;;;;;;;;;5021136;27;92919;-61
2023/12/01 09:12:34;;;;;;;26.85;11.43;;;;;;;;;;5018404;27;92531;-60
2023/12/01 09:15:00;;;;;;;24.92;11.70;;;;;;;;;;5023752;27;94186;-61
2023/12/01 09:17:27;;;;;;;26.55;11.88;;;;;;;;;;5019356;27;94748;-59
2023/12/01 09:19:53;;;;;;;27.20;12.45;;;;;;;;;;5025006;28;92441;-60
2023/12/01 09:22:19;;;;;;;24.90;11.52;;;;;;;;;;5022724;28;93347;-60
2023/12/01 09:24:46;;;;;;;26.35;11.48;;;;;;;;;;5027147;28;91731;-61
2023/12/01 09:27:13;;;;;;;30.65;12.77;;;;;;;;;;5020803;28;93452;-60
2023/12/01 09:29:39;;;;;;;32.55;13.05;;;;;;;;;;5016090;28;93373;-59
2023/12/01 09:32:06;;;;;;;26.80;11.60;;;;;;;;;;5016813;28;95248;-60
2023/12/01 09:34:32;;;;;;;28.38;12.65;;;;;;;;;;5022501;28;95850;-64
2023/12/01 09:36:58;;;;;;;25.98;11.52;;;;;;;;;;5020073;28;93454;-63
2023/12/01 09:39:25;;;;;;;24.83;11.52;;;;;;;;;;5020635;27;92809;-64
2023/12/01 09:41:52;;;;;;;26.10;11.88;;;;;;;;;;5020911;28;92872;-63
2023/12/01 09:44:19;;;;;;;25.52;11.50;;;;;;;;;;5016334;28;92541;-60
2023/12/01 09:46:47;;;;;;;22.83;10.80;;;;;;;;;;5018896;28;93679;-60
2023/12/01 09:49:13;;;;;;;22.88;11.13;;;;;;;;;;5022609;28;92778;-60
2023/12/01 09:51:40;;;;;;;24.60;10.25;;;;;;;;;;5021257;28;92881;-60
2023/12/01 09:54:06;;;;;;;25.40;10.93;;;;;;;;;;5022276;28;93515;-60
2023/12/01 09:56:33;;;;;;;27.52;11.40;;;;;;;;;;5020615;28;96797;-60
2023/12/01 09:58:59;;;;;;;25.30;10.65;;;;;;;;;;5023375;27;92467;-60
2023/12/01 10:01:26;;;;;;;21.70;10.00;;;;;;;;;;5021091;28;94257;-61
2023/12/01 10:03:52;;;;;;;25.95;10.85;;;;;;;;;;5024928;28;94464;-61
2023/12/01 10:06:19;;;;;;;25.25;11.63;;;;;;;;;;5021416;27;94351;-61
2023/12/01 10:08:49;;;;;;;28.10;11.38;;;;;;;;;;5019464;28;94150;-62
2023/12/01 10:11:19;;;;;;;24.87;11.20;;;;;;;;;;5021673;28;93552;-60
2023/12/01 10:13:46;;;;;;;;;;;;;;;;;;5021334;27;93291;-59
2023/12/01 10:16:12;;;;;;;25.75;10.35;;;;;;;;;;5021033;27;124025;-60
2023/12/01 10:18:38;;;;;;;24.50;11.05;;;;;;;;;;5025700;27;92436;-60
2023/12/01 10:21:07;;;;;;;26.20;10.80;;;;;;;;;;5019950;28;94948;-60
2023/12/01 10:23:36;;;;;;;24.27;11.07;;;;;;;;;;5024939;28;93374;-59
2023/12/01 10:26:07;;;;;;;22.20;10.48;;;;;;;;;;5017497;28;94186;-58
2023/12/01 10:28:38;;;;;;;27.25;11.15;;;;;;;;;;5020278;28;93955;-60
2023/12/01 10:31:05;;;;;;;26.60;10.70;;;;;;;;;;5018142;27;92788;-60
2023/12/01 10:33:31;;;;;;;26.10;11.13;;;;;;;;;;5019945;28;93005;-57
2023/12/01 10:36:01;;;;;;;22.35;10.90;;;;;;;;;;5020222;28;93379;-59
2023/12/01 10:38:28;;;;;;;27.02;11.57;;;;;;;;;;5023140;27;91685;-60
2023/12/01 10:40:54;;;;;;;26.98;10.93;;;;;;;;;;5021583;28;93517;-60
2023/12/01 10:43:21;;;;;;;21.38;10.98;;;;;;;;;;5020148;28;93429;-58
2023/12/01 10:45:49;;;;;;;22.83;10.90;;;;;;;;;;5024790;28;94924;-60
2023/12/01 10:48:19;;;;;;;25.05;10.95;;;;;;;;;;5020859;28;93132;-60
2023/12/01 10:50:46;;;;;;;24.23;11.13;;;;;;;;;;5021675;27;92444;-60
2023/12/01 10:53:16;;;;;;;24.20;11.50;;;;;;;;;;5024375;27;94220;-60
2023/12/01 10:55:45;;;;;;;24.43;11.37;;;;;;;;;;5020298;28;93383;-59
2023/12/01 10:58:15;;;;;;;22.08;10.65;;;;;;;;;;5017160;28;92502;-60
2023/12/01 11:00:41;;;;;;;20.95;10.07;;;;;;;;;;5012737;28;93179;-60
2023/12/01 11:03:09;;;;;;;25.25;11.02;;;;;;;;;;5024101;28;93825;-59
2023/12/01 11:05:36;;;;;;;20.60;10.70;;;;;;;;;;5012220;27;92514;-60
2023/12/01 11:08:19;;;;;;;24.35;11.07;;;;;;;;;;5025768;28;94209;-60
2023/12/01 11:10:54;;;;;;;24.95;11.70;;;;;;;;;;5015955;28;94836;-60
2023/12/01 11:13:20;;;;;;;26.10;11.07;;;;;;;;;;5020219;27;95474;-60
2023/12/01 11:15:49;;;;;;;24.33;10.43;;;;;;;;;;5021469;27;93494;-59
2023/12/01 11:18:15;;;;;;;24.65;10.43;;;;;;;;;;5017338;28;92789;-59
2023/12/01 11:20:43;;;;;;;24.83;10.60;;;;;;;;;;5016077;28;94931;-59
2023/12/01 11:23:10;;;;;;;25.30;10.77;;;;;;;;;;5023136;27;93374;-58
2023/12/01 11:25:43;;;;;;;19.58;10.23;;;;;;;;;;5016388;28;92390;-60
2023/12/01 11:28:32;;;;;;;23.58;10.15;;;;;;;;;;5017540;28;93234;-59
2023/12/01 11:31:00;;;;;;;22.77;10.13;;;;;;;;;;5019703;28;93365;-59
2023/12/01 11:33:31;;;;;;;21.85;10.55;;;;;;;;;;5019964;28;94260;-60
2023/12/01 11:36:16;;;;;;;20.25;9.73;;;;;;;;;;5017923;28;96878;-60
2023/12/01 11:39:06;;;;;;;19.65;9.43;;;;;;;;;;5017024;28;92405;-59
2023/12/01 11:41:37;;;;;;;21.90;9.82;;;;;;;;;;5017731;28;92588;-59
2023/12/01 11:44:07;;;;;;;23.63;9.68;;;;;;;;;;5022844;28;94430;-60
2023/12/01 11:46:34;;;;;;;23.65;10.90;;;;;;;;;;5020993;28;92564;-60
2023/12/01 11:49:00;;;;;;;22.13;10.27;;;;;;;;;;5020442;27;93480;-58
2023/12/01 11:51:26;;;;;;;22.02;10.10;;;;;;;;;;5015727;28;93408;-59
2023/12/01 11:53:57;;;;;;;22.38;10.57;;;;;;;;;;5024533;28;91702;-59
2023/12/01 11:56:33;;;;;;;19.92;9.80;;;;;;;;;;5018903;28;94390;-59
2023/12/01 11:58:59;;;;;;;25.92;10.88;;;;;;;;;;5018948;28;92480;-60
2023/12/01 12:01:26;;;;;;;24.55;10.43;;;;;;;;;;5020621;27;94812;-62
2023/12/01 12:03:53;;;;;;;20.58;10.00;;;;;;;;;;5016631;28;93396;-60
2023/12/01 12:06:20;;;;;;;17.73;9.65;;;;;;;;;;5020349;27;92544;-60
2023/12/01 12:08:48;;;;;;;20.15;10.15;;;;;;;;;;5019522;28;93472;-60
2023/12/01 12:11:15;;;;;;;21.00;9.98;;;;;;;;;;5023331;27;93393;-60
2023/12/01 12:13:41;;;;;;;21.60;9.95;;;;;;;;;;5019617;27;92477;-59
2023/12/01 12:16:08;;;;;;;22.38;10.45;;;;;;;;;;5022341;27;93151;-60
2023/12/01 12:18:34;;;;;;;22.50;10.48;;;;;;;;;;5022842;28;91775;-59
2023/12/01 12:21:04;;;;;;;21.20;10.25;;;;;;;;;;5020532;27;92618;-60
2023/12/01 12:23:31;;;;;;;21.17;9.57;;;;;;;;;;5021225;28;93566;-60
2023/12/01 12:26:16;;;;;;;19.48;9.65;;;;;;;;;;5017751;27;95056;-60
2023/12/01 12:28:43;;;;;;;17.23;8.80;;;;;;;;;;5021780;28;94197;-60
2023/12/01 12:31:09;;;;;;;18.23;8.82;;;;;;;;;;5026606;28;93427;-58
2023/12/01 12:33:36;;;;;;;15.63;8.63;;;;;;;;;;5026227;28;92498;-59
2023/12/01 12:36:03;;;;;;;18.67;9.05;;;;;;;;;;5027293;28;93222;-59
2023/12/01 12:38:30;;;;;;;19.05;9.80;;;;;;;;;;5017926;27;92434;-59
2023/12/01 12:40:56;;;;;;;24.10;10.35;;;;;;;;;;5019212;28;93126;-60
2023/12/01 12:43:23;;;;;;;18.67;9.50;;;;;;;;;;5027489;28;94169;-59
2023/12/01 12:45:49;;;;;;;24.23;9.75;;;;;;;;;;5021246;28;92497;-59
2023/12/01 12:48:18;;;;;;;19.92;9.63;;;;;;;;;;5014961;28;93261;-60
2023/12/01 12:50:47;;;;;;;22.30;10.13;;;;;;;;;;5019577;28;95863;-59
2023/12/01 12:53:13;;;;;;;19.52;9.57;;;;;;;;;;5019575;28;92465;-59
2023/12/01 12:55:40;;;;;;;20.40;9.88;;;;;;;;;;5023429;27;93205;-59
2023/12/01 12:58:06;;;;;;;16.80;9.00;;;;;;;;;;5024193;28;94071;-59
2023/12/01 13:00:33;;;;;;;32.53;9.02;;;;;;;;;;5018431;27;93225;-60
2023/12/01 13:02:59;;;;;;;21.30;10.52;;;;;;;;;;5021915;28;93700;-60
2023/12/01 13:05:26;;;;;;;19.60;9.43;;;;;;;;;;5023252;28;92564;-59
2023/12/01 13:07:53;;;;;;;22.95;10.20;;;;;;;;;;5017937;28;93155;-60
2023/12/01 13:10:19;;;;;;;19.73;9.73;;;;;;;;;;5022498;27;94472;-60
2023/12/01 13:12:46;;;;;;;21.02;9.15;;;;;;;;;;5027040;27;92311;-67
2023/12/01 13:15:12;;;;;;;25.08;9.50;;;;;;;;;;5019201;27;94791;-60
2023/12/01 13:17:39;;;;;;;18.60;8.98;;;;;;;;;;5020383;28;94450;-60
2023/12/01 13:20:07;;;;;;;14.85;8.07;;;;;;;;;;5026533;27;92829;-60
2023/12/01 13:22:33;;;;;;;17.88;9.13;;;;;;;;;;5024442;27;93401;-60
2023/12/01 13:25:02;;;;;;;20.50;9.02;;;;;;;;;;5023026;28;93009;-60
2023/12/01 13:27:29;;;;;;;20.42;9.68;;;;;;;;;;5018499;28;93367;-61
2023/12/01 13:29:55;;;;;;;18.15;8.90;;;;;;;;;;5018758;27;93351;-60
2023/12/01 13:32:22;;;;;;;15.88;8.52;;;;;;;;;;5021826;28;91938;-61
2023/12/01 13:34:49;;;;;;;22.23;9.70;;;;;;;;;;5016868;28;92511;-60
2023/12/01 13:37:16;;;;;;;22.33;9.90;;;;;;;;;;5018356;28;93753;-61
2023/12/01 13:39:43;;;;;;;18.60;9.20;;;;;;;;;;5020365;28;95431;-61
2023/12/01 13:42:10;;;;;;;19.73;9.40;;;;;;;;;;5028479;28;94752;-60
2023/12/01 13:44:37;;;;;;;20.60;9.57;;;;;;;;;;5023465;28;94154;-60
2023/12/01 13:47:03;;;;;;;20.20;9.98;;;;;;;;;;5018366;27;93028;-60
2023/12/01 13:49:29;;;;;;;19.25;9.50;;;;;;;;;;5014743;28;93485;-61
2023/12/01 13:51:56;;;;;;;24.23;9.43;;;;;;;;;;5023522;28;92460;-60
2023/12/01 13:54:22;;;;;;;20.30;10.23;;;;;;;;;;5024155;27;94206;-61
2023/12/01 13:56:49;;;;;;;27.30;9.27;;;;;;;;;;5015473;28;92493;-60
2023/12/01 13:59:15;;;;;;;23.73;10.10;;;;;;;;;;5018290;28;93676;-61
2023/12/01 14:01:42;;;;;;;23.35;9.73;;;;;;;;;;5022583;28;93274;-61
2023/12/01 14:04:08;;;;;;;20.10;10.27;;;;;;;;;;5025880;28;94796;-61
2023/12/01 14:06:35;;;;;;;19.23;9.43;;;;;;;;;;5022022;27;95563;-60
2023/12/01 14:09:01;;;;;;;19.45;9.68;;;;;;;;;;5016056;28;94419;-61
2023/12/01 14:11:28;;;;;;;20.52;10.00;;;;;;;;;;5011760;28;92710;-60
2023/12/01 14:13:54;;;;;;;20.38;10.02;;;;;;;;;;5021319;28;93207;-61
2023/12/01 14:16:21;;;;;;;18.83;8.93;;;;;;;;;;5018306;27;93421;-61
2023/12/01 14:18:48;;;;;;;21.95;10.25;;;;;;;;;;5021217;28;93544;-60